Time;durP1;ratioP1;P1;durP2;ratioP2;P2;SDS_P1;SDS_P2;PMS_P1;PMS_P2;Temp;Humidity;BMP_temperature;BMP_pressure;BME280_temperature;BME280_humidity;BME280_pressure;Samples;Min_cycle;Max_cycle;Signal;HPM_P1;HPM_P2
2021/10/18 00:01:29;;;;;;;20.17;6.03;;;;;;;20.71;81.33;100834.41;4985829;28;20046;-60
2021/10/18 00:03:56;;;;;;;17.05;6.43;;;;;;;20.69;81.32;100831.94;4983903;28;20046;-60
2021/10/18 00:06:23;;;;;;;23.60;6.30;;;;;;;20.68;81.17;100830.25;4991371;28;20046;-60
2021/10/18 00:08:49;;;;;;;17.80;5.82;;;;;;;20.60;81.28;100833.97;4990250;28;20085;-60
2021/10/18 00:11:18;;;;;;;17.40;6.00;;;;;;;20.58;81.46;100825.81;4987918;28;20410;-61
2021/10/18 00:14:04;;;;;;;19.75;7.07;;;;;;;20.56;81.43;100824.50;4985915;28;20053;-60
2021/10/18 00:16:31;;;;;;;18.83;5.88;;;;;;;20.54;81.31;100827.66;4989158;28;20050;-59
2021/10/18 00:18:58;;;;;;;21.58;6.22;;;;;;;20.51;81.29;100825.53;4991494;28;20054;-59
2021/10/18 00:21:25;;;;;;;20.70;5.82;;;;;;;20.52;81.60;100837.72;4989897;28;20050;-60
2021/10/18 00:23:52;;;;;;;21.23;5.28;;;;;;;20.41;81.35;100820.22;4990707;28;20081;-59
2021/10/18 00:26:19;;;;;;;19.90;6.38;;;;;;;20.53;81.61;100834.50;4989828;28;20579;-58
2021/10/18 00:28:46;;;;;;;14.27;6.05;;;;;;;20.54;81.44;100830.50;4989340;28;20052;-59
2021/10/18 00:31:13;;;;;;;17.27;6.63;;;;;;;20.47;81.75;100835.00;4975328;28;20130;-60
2021/10/18 00:33:40;;;;;;;16.90;5.60;;;;;;;20.42;81.52;100833.22;4992251;28;20128;-61
2021/10/18 00:36:06;;;;;;;18.33;6.65;;;;;;;20.45;81.72;100837.38;4985254;28;20054;-61
2021/10/18 00:38:33;;;;;;;19.50;6.47;;;;;;;20.43;81.81;100834.88;4991973;28;20141;-59
2021/10/18 00:41:00;;;;;;;15.90;6.22;;;;;;;20.33;81.62;100829.56;4991818;28;20047;-61
2021/10/18 00:43:27;;;;;;;22.77;6.72;;;;;;;20.30;81.82;100816.06;4989461;28;20558;-59
2021/10/18 00:45:54;;;;;;;16.67;6.70;;;;;;;20.42;81.64;100827.53;4983333;28;20093;-61
2021/10/18 00:48:23;;;;;;;18.48;6.13;;;;;;;20.41;81.81;100822.19;4990412;28;20070;-59
2021/10/18 00:50:55;;;;;;;19.48;7.00;;;;;;;20.48;81.77;100809.16;4978525;28;20746;-61
2021/10/18 00:53:26;;;;;;;19.75;7.60;;;;;;;20.48;81.39;100809.16;4982317;28;20289;-63
2021/10/18 00:55:54;;;;;;;22.23;6.25;;;;;;;20.43;81.61;100800.81;4983450;28;20046;-59
2021/10/18 00:58:22;;;;;;;21.20;7.63;;;;;;;20.51;81.50;100819.00;4988114;28;20042;-60
2021/10/18 01:00:50;;;;;;;21.90;7.00;;;;;;;20.42;81.46;100801.19;4987782;28;20090;-59
2021/10/18 01:03:18;;;;;;;23.48;7.68;;;;;;;20.42;81.60;100799.16;4992806;28;20046;-58
2021/10/18 01:05:46;;;;;;;18.95;7.70;;;;;;;20.46;81.40;100810.66;4993314;28;20043;-63
2021/10/18 01:08:14;;;;;;;20.60;7.43;;;;;;;20.47;81.59;100818.81;4991044;28;20095;-63
2021/10/18 01:10:41;;;;;;;30.13;7.15;;;;;;;20.30;81.24;100782.03;4995835;28;20498;-62
2021/10/18 01:13:08;;;;;;;20.83;6.90;;;;;;;20.35;81.70;100799.69;4992622;28;20137;-65
2021/10/18 01:15:36;;;;;;;20.90;7.88;;;;;;;20.30;81.53;100790.53;4993288;28;20078;-63
2021/10/18 01:18:03;;;;;;;26.80;8.43;;;;;;;20.39;81.33;100805.53;4995411;28;20129;-62
2021/10/18 01:20:34;;;;;;;25.85;8.25;;;;;;;20.33;81.90;100812.56;4986274;28;20078;-62
2021/10/18 01:23:01;;;;;;;25.35;7.78;;;;;;;20.31;81.81;100806.41;4991616;28;20097;-62
2021/10/18 01:25:29;;;;;;;25.45;7.32;;;;;;;20.24;81.63;100786.22;4992759;28;20081;-61
2021/10/18 01:27:55;;;;;;;18.63;6.38;;;;;;;20.18;82.04;100796.13;4993266;28;20141;-61
2021/10/18 01:30:23;;;;;;;22.13;7.35;;;;;;;20.28;81.73;100813.59;4989811;28;20086;-61
2021/10/18 01:32:51;;;;;;;21.38;6.57;;;;;;;20.27;81.92;100819.56;4992608;28;20078;-61
2021/10/18 01:35:17;;;;;;;19.27;6.60;;;;;;;20.28;81.95;100810.75;4992463;28;20140;-62
2021/10/18 01:37:45;;;;;;;19.85;6.90;;;;;;;20.23;82.00;100810.09;4995192;28;20181;-60
2021/10/18 01:40:15;;;;;;;9.63;5.13;;;;;;;20.08;82.13;100771.81;4985519;28;20545;-61
2021/10/18 01:42:42;;;;;;;;;;;;;;;20.20;81.98;100807.94;4995797;28;20133;-62
2021/10/18 01:45:12;;;;;;;17.58;5.63;;;;;;;20.19;81.90;100809.13;4991021;28;20012;-61
2021/10/18 01:47:39;;;;;;;19.77;5.47;;;;;;;20.16;82.19;100813.44;4987086;28;20129;-62
2021/10/18 01:50:11;;;;;;;15.15;5.85;;;;;;;20.19;82.16;100811.94;4984912;28;20112;-62
2021/10/18 01:52:39;;;;;;;15.20;5.68;;;;;;;20.26;82.01;100815.09;4993749;28;20054;-59
2021/10/18 01:55:06;;;;;;;12.48;5.72;;;;;;;20.18;82.35;100798.94;4983756;28;20571;-59
2021/10/18 01:57:33;;;;;;;15.05;5.30;;;;;;;20.18;82.03;100821.63;4989922;28;20135;-60
2021/10/18 02:00:08;;;;;;;14.32;5.38;;;;;;;20.12;82.05;100801.97;4990676;28;20125;-59
2021/10/18 02:02:35;;;;;;;10.63;4.88;;;;;;;20.18;82.03;100804.63;4979247;28;20074;-60
2021/10/18 02:05:03;;;;;;;11.30;4.20;;;;;;;20.27;81.93;100816.75;4992107;28;20182;-58
2021/10/18 02:07:30;;;;;;;10.85;5.30;;;;;;;20.28;81.76;100815.59;4995303;28;20074;-59
2021/10/18 02:09:59;;;;;;;12.00;4.90;;;;;;;20.26;81.76;100812.25;4993610;28;20148;-61
2021/10/18 02:12:27;;;;;;;13.85;5.38;;;;;;;20.20;81.76;100796.59;4991410;28;20050;-61
2021/10/18 02:14:54;;;;;;;14.25;5.47;;;;;;;20.28;81.58;100810.75;4994183;28;20470;-60
2021/10/18 02:17:21;;;;;;;15.93;6.40;;;;;;;20.27;81.77;100808.22;4976506;28;20543;-59
2021/10/18 02:19:48;;;;;;;19.00;6.32;;;;;;;20.24;81.72;100809.78;4981675;28;20081;-59
2021/10/18 02:22:14;;;;;;;25.45;5.70;;;;;;;20.33;81.78;100826.72;4989461;28;20074;-59
2021/10/18 02:24:41;;;;;;;13.95;5.78;;;;;;;20.34;81.94;100814.22;4994061;28;20077;-59
2021/10/18 02:27:08;;;;;;;17.50;5.38;;;;;;;20.31;81.95;100826.25;4978398;28;20134;-59
2021/10/18 02:29:35;;;;;;;12.88;5.93;;;;;;;20.24;81.72;100809.78;4992604;28;20512;-60
2021/10/18 02:32:02;;;;;;;12.27;5.35;;;;;;;20.25;82.14;100819.94;4991363;28;20069;-60
2021/10/18 02:34:29;;;;;;;14.73;5.57;;;;;;;20.28;81.93;100821.25;4993350;28;20081;-62
2021/10/18 02:36:56;;;;;;;17.10;5.88;;;;;;;20.29;81.92;100829.41;4976011;28;20461;-63
2021/10/18 02:39:22;;;;;;;17.83;5.95;;;;;;;20.32;81.91;100816.56;4984233;28;20085;-65
2021/10/18 02:41:49;;;;;;;13.98;5.95;;;;;;;20.29;81.62;100823.75;4991645;28;20070;-63
2021/10/18 02:44:16;;;;;;;15.52;6.43;;;;;;;20.22;81.97;100808.44;4992463;28;20086;-62
2021/10/18 02:46:43;;;;;;;13.77;5.75;;;;;;;19.81;81.89;100758.88;4993431;28;20134;-62
2021/10/18 02:49:10;;;;;;;18.88;6.75;;;;;;;20.35;81.73;100827.25;4990977;28;20038;-62
2021/10/18 02:51:37;;;;;;;15.77;6.10;;;;;;;20.36;81.83;100829.72;4993732;28;20490;-61
2021/10/18 02:54:05;;;;;;;15.30;6.50;;;;;;;20.38;81.78;100822.91;4993745;28;20078;-61
2021/10/18 02:56:32;;;;;;;16.35;6.20;;;;;;;20.33;81.41;100812.56;4991749;28;20553;-61
2021/10/18 02:58:59;;;;;;;19.60;7.20;;;;;;;20.37;81.80;100819.19;4987936;28;20149;-61
2021/10/18 03:01:26;;;;;;;19.70;7.22;;;;;;;20.48;81.36;100831.84;4990528;28;20137;-60
2021/10/18 03:03:55;;;;;;;17.75;7.05;;;;;;;20.50;81.27;100840.88;4993616;28;20046;-60
2021/10/18 03:06:22;;;;;;;19.42;7.38;;;;;;;20.29;81.51;100801.06;4986339;28;20097;-60
2021/10/18 03:08:50;;;;;;;16.50;7.38;;;;;;;20.50;81.22;100831.50;4983704;28;20499;-60
2021/10/18 03:11:17;;;;;;;19.15;6.15;;;;;;;20.41;81.42;100814.53;4990800;28;20073;-61
2021/10/18 03:13:44;;;;;;;13.82;5.93;;;;;;;20.37;81.61;100807.84;4991498;28;20070;-61
2021/10/18 03:16:11;;;;;;;14.77;6.05;;;;;;;20.47;81.03;100818.81;4984734;28;20050;-61
2021/10/18 03:18:38;;;;;;;11.65;6.53;;;;;;;20.50;81.40;100818.19;4990432;28;20108;-60
2021/10/18 03:21:05;;;;;;;20.45;6.72;;;;;;;20.39;81.52;100811.19;4991521;28;20137;-59
2021/10/18 03:23:32;;;;;;;18.83;5.95;;;;;;;20.53;81.38;100823.16;4984992;28;20046;-61
2021/10/18 03:25:59;;;;;;;15.93;6.57;;;;;;;20.56;81.35;100825.31;4987730;28;20136;-60
2021/10/18 03:28:25;;;;;;;17.95;6.60;;;;;;;20.59;81.17;100820.97;4990506;28;20129;-59
2021/10/18 03:30:52;;;;;;;14.98;5.75;;;;;;;20.65;81.11;100824.44;4985277;28;20042;-58
2021/10/18 03:33:19;;;;;;;11.57;6.28;;;;;;;20.54;80.62;100809.81;4989664;28;20047;-59
2021/10/18 03:35:49;;;;;;;15.60;6.40;;;;;;;20.58;80.94;100813.63;4989061;28;20510;-58
2021/10/18 03:38:16;;;;;;;16.27;6.57;;;;;;;20.67;80.75;100810.75;4989977;28;20176;-58
2021/10/18 03:40:44;;;;;;;22.63;7.20;;;;;;;20.66;80.41;100809.09;4993070;28;20046;-57
2021/10/18 03:43:10;;;;;;;19.95;6.22;;;;;;;20.68;80.56;100809.56;4976385;28;20149;-58
2021/10/18 03:45:37;;;;;;;13.48;6.28;;;;;;;20.63;80.43;100804.09;4989842;28;20137;-60
2021/10/18 03:48:04;;;;;;;19.90;6.63;;;;;;;20.53;80.59;100791.97;4992164;28;20082;-59
2021/10/18 03:50:31;;;;;;;14.43;5.93;;;;;;;20.66;80.36;100820.44;4985147;28;20072;-58
2021/10/18 03:52:58;;;;;;;12.90;5.85;;;;;;;20.64;80.45;100817.09;4990923;28;20489;-60
2021/10/18 03:55:25;;;;;;;18.33;7.05;;;;;;;20.31;80.84;100770.38;4992834;28;20058;-60
2021/10/18 03:57:52;;;;;;;26.55;8.48;;;;;;;20.53;80.46;100820.34;4981465;28;20134;-59
2021/10/18 04:00:18;;;;;;;16.73;6.40;;;;;;;20.53;80.95;100823.16;4982026;28;20126;-60
2021/10/18 04:02:45;;;;;;;16.73;7.90;;;;;;;20.52;80.89;100824.34;4990914;28;20129;-58
2021/10/18 04:05:12;;;;;;;18.45;7.25;;;;;;;20.54;80.61;100829.66;4993667;28;20058;-58
2021/10/18 04:07:40;;;;;;;16.90;7.35;;;;;;;20.48;80.75;100826.19;4985866;28;20542;-58
2021/10/18 04:10:08;;;;;;;15.73;7.45;;;;;;;20.45;80.78;100826.84;4973770;28;20074;-59
2021/10/18 04:12:34;;;;;;;17.42;7.20;;;;;;;20.38;80.78;100809.53;4985489;28;20077;-61
2021/10/18 04:15:01;;;;;;;17.55;7.78;;;;;;;20.45;80.85;100824.03;4981937;28;20173;-59
2021/10/18 04:17:28;;;;;;;14.15;7.68;;;;;;;20.33;80.90;100792.69;4982208;28;20051;-60
2021/10/18 04:19:56;;;;;;;17.73;6.72;;;;;;;20.44;80.95;100828.00;4990670;28;20069;-58
2021/10/18 04:22:23;;;;;;;21.73;8.50;;;;;;;20.44;80.88;100832.84;4988296;28;20545;-59
2021/10/18 04:24:50;;;;;;;18.10;7.07;;;;;;;20.39;81.01;100830.22;4987391;28;20144;-59
2021/10/18 04:27:17;;;;;;;18.15;7.25;;;;;;;20.41;80.86;100839.22;4989716;28;20076;-60
2021/10/18 04:29:43;;;;;;;12.73;7.55;;;;;;;20.43;81.11;100839.72;4991076;28;20074;-59
2021/10/18 04:32:10;;;;;;;17.42;7.07;;;;;;;20.45;80.83;100838.22;4984683;28;20213;-59
2021/10/18 04:34:37;;;;;;;17.30;6.97;;;;;;;20.35;81.00;100825.22;4985863;28;20133;-59
2021/10/18 04:37:04;;;;;;;21.15;8.68;;;;;;;20.30;80.64;100804.72;4991936;28;20483;-59
2021/10/18 04:39:31;;;;;;;21.27;7.90;;;;;;;20.53;80.99;100833.69;4993188;28;20133;-57
2021/10/18 04:41:58;;;;;;;19.77;8.25;;;;;;;20.57;80.53;100835.50;4985669;28;20081;-62
2021/10/18 04:44:25;;;;;;;17.85;8.35;;;;;;;20.57;80.39;100829.00;4992205;28;20466;-59
2021/10/18 04:46:52;;;;;;;18.33;7.70;;;;;;;20.61;80.78;100838.47;4981123;28;20088;-59
2021/10/18 04:49:19;;;;;;;22.73;7.68;;;;;;;20.62;80.42;100837.31;4992500;28;20046;-59
2021/10/18 04:51:45;;;;;;;14.45;7.25;;;;;;;20.42;80.30;100806.84;4981755;28;20141;-60
2021/10/18 04:54:13;;;;;;;18.15;6.85;;;;;;;20.48;80.58;100825.34;4992458;28;20046;-60
2021/10/18 04:56:40;;;;;;;19.85;6.35;;;;;;;20.53;80.34;100836.53;4991519;28;20137;-63
2021/10/18 04:59:06;;;;;;;15.18;6.15;;;;;;;20.26;80.47;100806.59;4986225;28;20078;-60
2021/10/18 05:01:33;;;;;;;16.27;6.53;;;;;;;20.42;80.86;100833.22;4980248;28;20142;-63
2021/10/18 05:04:00;;;;;;;11.63;5.57;;;;;;;20.46;80.62;100844.72;4983600;28;20498;-59
2021/10/18 05:06:27;;;;;;;10.85;6.55;;;;;;;20.42;80.79;100843.72;4984287;28;20090;-60
2021/10/18 05:08:54;;;;;;;19.27;6.90;;;;;;;20.28;80.83;100832.59;4989995;28;20088;-61
2021/10/18 05:11:21;;;;;;;19.90;6.32;;;;;;;20.33;80.72;100840.91;4988834;28;20112;-63
2021/10/18 05:13:48;;;;;;;13.35;5.95;;;;;;;20.40;80.66;100849.72;4990056;28;20057;-59
2021/10/18 05:16:15;;;;;;;14.13;6.63;;;;;;;20.44;80.69;100849.88;4990357;28;20092;-63
2021/10/18 05:18:42;;;;;;;12.18;6.20;;;;;;;20.30;80.85;100838.75;4987077;28;20042;-61
2021/10/18 05:21:09;;;;;;;12.10;6.13;;;;;;;20.36;81.00;100846.75;4990423;28;20097;-61
2021/10/18 05:23:36;;;;;;;14.68;6.25;;;;;;;20.36;80.67;100852.41;4990689;28;20085;-60
2021/10/18 05:26:02;;;;;;;19.00;6.82;;;;;;;20.26;80.72;100837.78;4986691;28;20133;-59
2021/10/18 05:28:29;;;;;;;18.45;7.50;;;;;;;20.20;80.68;100824.94;4989037;28;20054;-59
2021/10/18 05:30:56;;;;;;;15.85;6.40;;;;;;;20.23;81.00;100842.13;4988078;28;20117;-60
2021/10/18 05:33:23;;;;;;;18.55;7.68;;;;;;;19.97;80.84;100794.03;4990818;28;20126;-58
2021/10/18 05:35:51;;;;;;;22.63;8.07;;;;;;;20.25;81.08;100845.44;4985432;28;20093;-59
2021/10/18 05:38:21;;;;;;;12.60;6.75;;;;;;;20.23;80.91;100841.28;4983280;28;20138;-58
2021/10/18 05:40:50;;;;;;;20.67;8.07;;;;;;;20.18;80.85;100838.66;4983420;28;20638;-60
2021/10/18 05:43:18;;;;;;;19.27;7.40;;;;;;;20.16;80.79;100843.81;4984489;28;20516;-58
2021/10/18 05:45:46;;;;;;;16.52;7.57;;;;;;;20.17;80.79;100842.63;4986851;28;20347;-59
2021/10/18 05:48:15;;;;;;;20.33;7.18;;;;;;;20.15;80.59;100839.31;4983584;28;20401;-59
2021/10/18 05:50:44;;;;;;;14.90;6.68;;;;;;;20.11;80.51;100834.31;4987079;28;20108;-58
2021/10/18 05:53:12;;;;;;;18.52;7.90;;;;;;;20.13;80.37;100837.63;4989410;28;20495;-61
2021/10/18 05:55:39;;;;;;;19.38;8.02;;;;;;;20.11;80.26;100842.84;4987169;28;20494;-60
2021/10/18 05:58:09;;;;;;;21.35;8.05;;;;;;;20.15;80.16;100845.81;4991458;28;20081;-60
2021/10/18 06:00:41;;;;;;;21.25;7.25;;;;;;;20.15;80.23;100845.00;4989207;28;20046;-60
2021/10/18 06:03:09;;;;;;;20.90;7.95;;;;;;;19.86;80.53;100804.88;4994965;28;20082;-58
2021/10/18 06:05:43;;;;;;;22.20;9.00;;;;;;;20.09;80.77;100848.00;4992520;28;20058;-60
2021/10/18 06:08:12;;;;;;;18.70;7.22;;;;;;;19.95;80.81;100824.69;4987508;28;20053;-58
2021/10/18 06:10:41;;;;;;;17.33;7.70;;;;;;;19.97;80.88;100849.88;4987674;28;20050;-59
2021/10/18 06:13:08;;;;;;;22.50;7.90;;;;;;;19.84;81.09;100829.06;4988147;28;20085;-58
2021/10/18 06:15:36;;;;;;;15.35;7.93;;;;;;;19.96;81.26;100851.84;4988263;28;20137;-59
2021/10/18 06:18:14;;;;;;;19.30;8.43;;;;;;;19.92;80.93;100845.19;4992818;28;20540;-59
2021/10/18 06:20:48;;;;;;;17.70;7.47;;;;;;;19.98;81.11;100852.38;4994606;28;20709;-58
2021/10/18 06:23:15;;;;;;;19.85;8.35;;;;;;;20.01;80.91;100854.53;4993615;28;20046;-60
2021/10/18 06:25:43;;;;;;;22.55;9.02;;;;;;;19.97;81.32;100850.72;4991099;28;20121;-60
2021/10/18 06:28:10;;;;;;;18.27;8.25;;;;;;;19.97;81.24;100870.56;4993410;28;20125;-60
2021/10/18 06:30:37;;;;;;;17.70;8.35;;;;;;;19.87;81.25;100854.72;4990435;28;20760;-61
2021/10/18 06:33:05;;;;;;;19.30;8.45;;;;;;;19.88;81.25;100858.38;4992271;28;20490;-59
2021/10/18 06:35:36;;;;;;;20.45;8.65;;;;;;;19.80;81.43;100856.41;4989732;28;20125;-59
2021/10/18 06:38:12;;;;;;;19.05;7.38;;;;;;;19.77;81.33;100862.75;4989275;28;20129;-59
2021/10/18 06:40:40;;;;;;;17.85;7.93;;;;;;;19.77;81.52;100859.91;4983500;28;20070;-59
2021/10/18 06:43:07;;;;;;;15.73;7.78;;;;;;;19.78;81.80;100862.41;4985609;28;20134;-59
2021/10/18 06:45:34;;;;;;;18.70;8.55;;;;;;;19.79;81.21;100860.41;4991351;28;20125;-59
2021/10/18 06:48:05;;;;;;;17.83;8.40;;;;;;;19.76;81.25;100850.59;4989471;28;20046;-59
2021/10/18 06:50:33;;;;;;;24.70;10.23;;;;;;;19.74;81.26;100852.09;4994544;28;20537;-59
2021/10/18 06:53:00;;;;;;;19.27;8.68;;;;;;;19.78;81.14;100853.06;4975858;28;20510;-59
2021/10/18 06:55:28;;;;;;;23.70;9.43;;;;;;;19.89;80.94;100865.72;4987651;28;20043;-59
2021/10/18 06:57:58;;;;;;;22.55;10.07;;;;;;;19.89;81.15;100865.72;4982872;28;20089;-59
2021/10/18 07:00:25;;;;;;;22.95;10.40;;;;;;;19.85;81.35;100870.41;4997220;28;20085;-59
2021/10/18 07:02:51;;;;;;;25.02;10.02;;;;;;;19.91;81.08;100880.41;4991688;28;20085;-59
2021/10/18 07:05:18;;;;;;;31.42;11.05;;;;;;;19.91;81.28;100874.72;4981438;28;20198;-59
2021/10/18 07:07:45;;;;;;;18.80;9.32;;;;;;;19.84;81.46;100880.06;4992350;28;20093;-59
2021/10/18 07:10:12;;;;;;;19.42;9.30;;;;;;;19.84;81.45;100875.22;4990308;28;20560;-59
2021/10/18 07:12:39;;;;;;;19.85;9.93;;;;;;;19.72;81.70;100860.06;4994631;28;20463;-59
2021/10/18 07:15:07;;;;;;;28.25;11.30;;;;;;;19.83;81.52;100872.75;4990063;28;20070;-59
2021/10/18 07:17:35;;;;;;;23.98;11.27;;;;;;;19.75;81.75;100873.56;4988265;28;20470;-59
2021/10/18 07:20:04;;;;;;;23.50;10.52;;;;;;;19.65;81.81;100850.06;4992122;28;20129;-59
2021/10/18 07:22:40;;;;;;;26.13;10.75;;;;;;;19.74;81.65;100872.75;4992217;28;20050;-59
2021/10/18 07:25:08;;;;;;;20.33;10.52;;;;;;;19.82;81.54;100876.72;4990462;28;20133;-59
2021/10/18 07:27:34;;;;;;;21.50;10.10;;;;;;;19.83;81.57;100881.25;4989956;28;20085;-59
2021/10/18 07:30:04;;;;;;;27.42;11.68;;;;;;;19.88;81.44;100873.38;4992263;28;20050;-58
2021/10/18 07:32:32;;;;;;;22.10;10.55;;;;;;;19.97;81.44;100884.72;4986862;28;20052;-59
2021/10/18 07:35:00;;;;;;;21.55;11.18;;;;;;;19.98;81.28;100889.22;4988396;28;20081;-59
2021/10/18 07:37:28;;;;;;;23.02;10.52;;;;;;;19.92;81.53;100870.72;4992709;28;20050;-59
2021/10/18 07:39:55;;;;;;;19.80;10.15;;;;;;;19.99;81.18;100890.03;4989189;28;20084;-59
2021/10/18 07:42:22;;;;;;;14.38;7.78;;;;;;;19.94;81.51;100885.41;4985054;28;20047;-60
2021/10/18 07:44:49;;;;;;;12.98;6.75;;;;;;;19.54;81.70;100837.41;4986135;28;20130;-60
2021/10/18 07:47:16;;;;;;;17.98;7.70;;;;;;;19.82;81.82;100899.41;4986814;28;20070;-59
2021/10/18 07:49:43;;;;;;;16.73;7.32;;;;;;;19.80;81.91;100907.44;4991724;28;20070;-59
2021/10/18 07:52:13;;;;;;;16.95;8.05;;;;;;;19.68;81.93;100887.41;4986600;28;20046;-59
2021/10/18 07:54:43;;;;;;;16.75;6.15;;;;;;;19.60;82.43;100892.72;4992462;28;20070;-60
2021/10/18 07:57:10;;;;;;;20.93;8.50;;;;;;;19.72;82.11;100894.91;4988798;28;20082;-59
2021/10/18 07:59:37;;;;;;;15.25;8.52;;;;;;;19.80;82.17;100913.91;4983985;28;20141;-59
2021/10/18 08:02:04;;;;;;;17.40;6.18;;;;;;;19.77;82.33;100913.75;4987395;28;20046;-59
2021/10/18 08:04:31;;;;;;;12.65;6.40;;;;;;;19.71;82.53;100912.25;4993377;28;20085;-60
2021/10/18 08:06:57;;;;;;;16.45;8.60;;;;;;;19.74;82.46;100915.25;4983526;28;20108;-59
2021/10/18 08:09:26;;;;;;;18.45;8.18;;;;;;;19.81;82.53;100915.56;4990168;28;20077;-60
2021/10/18 08:11:55;;;;;;;13.30;7.93;;;;;;;19.89;82.49;100911.06;4990288;28;20065;-60
2021/10/18 08:14:22;;;;;;;12.77;6.68;;;;;;;19.88;82.16;100926.41;4991911;28;20078;-60
2021/10/18 08:16:50;;;;;;;12.75;7.47;;;;;;;19.87;82.17;100916.25;4992141;28;20081;-59
2021/10/18 08:19:16;;;;;;;15.52;8.02;;;;;;;20.07;81.97;100926.06;4991632;28;20137;-59
2021/10/18 08:21:44;;;;;;;13.02;7.00;;;;;;;20.08;82.05;100925.72;4989473;28;20565;-59
2021/10/18 08:24:10;;;;;;;16.60;8.07;;;;;;;20.17;81.80;100925.72;4989825;28;20081;-59
2021/10/18 08:26:38;;;;;;;16.65;7.20;;;;;;;20.37;81.64;100927.00;4992329;28;20158;-59
2021/10/18 08:29:05;;;;;;;15.50;7.90;;;;;;;20.49;81.49;100938.47;4982663;28;20121;-59
2021/10/18 08:31:32;;;;;;;13.18;7.32;;;;;;;20.54;81.31;100938.31;4985374;28;20355;-59
2021/10/18 08:33:58;;;;;;;11.82;6.65;;;;;;;20.75;81.08;100949.78;4978380;28;20047;-59
2021/10/18 08:36:25;;;;;;;12.23;7.22;;;;;;;20.86;81.26;100943.72;4987822;28;20093;-60
2021/10/18 08:39:58;;;;;;;16.23;6.38;;;;;;;20.94;80.81;100945.69;4988822;28;20133;-59
2021/10/18 08:41:53;;;;;;;15.95;6.75;;;;;;;21.06;80.91;100954.31;4985498;28;20083;-59
2021/10/18 08:44:20;;;;;;;13.27;6.32;;;;;;;21.21;80.61;100952.91;4989185;28;20458;-64
2021/10/18 08:46:49;;;;;;;14.15;6.43;;;;;;;21.23;80.49;100930.63;4987167;28;20134;-63
2021/10/18 08:49:21;;;;;;;13.07;7.40;;;;;;;21.53;80.38;100946.50;4979139;28;20352;-64
2021/10/18 08:51:49;;;;;;;14.70;6.90;;;;;;;21.79;79.63;100956.88;4986693;28;20047;-64
2021/10/18 08:54:16;;;;;;;9.73;6.85;;;;;;;21.95;79.32;100952.22;4984501;28;20130;-63
2021/10/18 08:56:55;;;;;;;8.95;5.82;;;;;;;22.25;79.00;100952.13;4977867;28;20055;-63
2021/10/18 08:59:24;;;;;;;11.00;6.35;;;;;;;22.37;79.14;100960.72;4985312;28;20522;-63
2021/10/18 09:01:53;;;;;;;9.13;5.78;;;;;;;22.45;78.41;100965.47;4986055;28;20051;-64
2021/10/18 09:04:30;;;;;;;12.57;4.97;;;;;;;22.58;78.17;100960.63;4979067;28;20109;-64
2021/10/18 09:07:02;;;;;;;11.27;5.40;;;;;;;22.76;77.76;100957.59;4982509;28;20042;-64
2021/10/18 09:09:47;;;;;;;7.38;4.53;;;;;;;22.88;77.52;100943.38;4987162;28;20469;-64
2021/10/18 09:12:26;;;;;;;8.40;5.32;;;;;;;23.12;77.47;100954.81;4989273;28;20073;-64
2021/10/18 09:14:54;;;;;;;8.38;4.07;;;;;;;23.23;76.75;100960.84;4987663;28;20073;-64
2021/10/18 09:17:34;;;;;;;5.10;3.40;;;;;;;23.20;75.97;100941.63;4984648;28;20046;-64
2021/10/18 09:20:21;;;;;;;5.97;3.67;;;;;;;23.53;75.33;100958.56;4985618;28;20078;-64
2021/10/18 09:22:50;;;;;;;7.90;4.80;;;;;;;23.74;74.61;100969.84;4974644;28;20562;-63
2021/10/18 09:25:40;;;;;;;5.93;3.90;;;;;;;23.60;73.85;100967.34;4986578;28;20135;-64
2021/10/18 09:28:09;;;;;;;8.25;3.95;;;;;;;23.56;73.62;100966.41;4987217;28;20105;-64
2021/10/18 09:30:38;;;;;;;6.22;3.50;;;;;;;23.46;73.59;100977.47;4989927;28;20062;-64
2021/10/18 09:33:22;;;;;;;13.25;4.95;;;;;;;23.23;73.97;100972.25;4987448;28;20141;-64
2021/10/18 09:35:50;;;;;;;7.57;4.38;;;;;;;23.32;72.93;100975.00;4993750;28;20402;-64
2021/10/18 09:38:19;;;;;;;6.45;4.13;;;;;;;23.26;72.86;100965.03;4991291;28;20085;-63
2021/10/18 09:40:49;;;;;;;10.35;4.57;;;;;;;23.25;72.52;100977.59;4994177;28;20149;-63
2021/10/18 09:46:16;;;;;;;8.23;4.55;;;;;;;23.32;72.20;100981.53;4990792;28;20133;-63
2021/10/18 10:54:08;;;;;;;18.20;9.30;;;;;;;27.21;61.46;100980.28;4982964;28;20402;-64
2021/10/18 10:56:47;;;;;;;15.73;9.00;;;;;;;27.70;60.77;100990.91;4990732;28;20482;-64
2021/10/18 10:59:24;;;;;;;16.40;8.77;;;;;;;28.28;60.44;100973.28;4978489;28;20395;-61
2021/10/18 11:01:57;;;;;;;13.82;8.25;;;;;;;28.71;59.10;100973.78;4992614;28;20050;-59
2021/10/18 11:04:30;;;;;;;15.18;9.00;;;;;;;29.19;58.92;100970.97;4991906;28;20057;-59
2021/10/18 11:07:11;;;;;;;16.55;9.77;;;;;;;29.57;57.89;100975.38;4988337;28;20057;-59
2021/10/18 11:09:54;;;;;;;15.38;8.00;;;;;;;29.84;56.15;100967.34;4989701;28;20050;-58
2021/10/18 11:12:31;;;;;;;17.10;9.95;;;;;;;30.01;56.14;100970.72;4984150;28;20050;-58
2021/10/18 11:15:26;;;;;;;14.48;8.98;;;;;;;30.32;54.69;100969.25;4987628;28;20439;-58
2021/10/18 11:17:54;;;;;;;15.25;10.07;;;;;;;30.64;53.85;100964.41;4980098;28;20496;-58
2021/10/18 11:20:27;;;;;;;19.60;9.30;;;;;;;31.06;53.55;100959.13;4986438;28;20144;-58
2021/10/18 11:22:59;;;;;;;15.35;9.18;;;;;;;31.46;53.10;100963.69;4983028;28;20129;-58
2021/10/18 11:25:28;;;;;;;11.20;7.35;;;;;;;31.71;51.20;100951.25;4976740;28;20051;-58
2021/10/18 11:27:58;;;;;;;16.80;9.65;;;;;;;31.52;50.51;100961.19;4978129;28;20055;-58
2021/10/18 11:30:28;;;;;;;11.55;7.75;;;;;;;31.34;50.62;100959.13;4991893;28;20125;-59
2021/10/18 11:32:57;;;;;;;12.93;6.93;;;;;;;30.88;50.62;100948.41;4992067;28;20082;-58
2021/10/18 11:35:26;;;;;;;12.75;7.55;;;;;;;31.21;50.55;100963.66;4993545;28;20582;-58
2021/10/18 11:38:00;;;;;;;13.35;7.95;;;;;;;31.35;49.90;100952.16;4980780;28;20134;-58
2021/10/18 11:40:37;;;;;;;15.77;8.68;;;;;;;31.53;49.35;100951.28;4979832;28;20129;-58
2021/10/18 11:43:05;;;;;;;11.10;7.65;;;;;;;31.89;47.65;100957.81;4993138;28;20146;-58
2021/10/18 11:45:35;;;;;;;15.00;6.60;;;;;;;32.35;46.80;100944.44;4988752;28;20141;-58
2021/10/18 11:48:14;;;;;;;12.80;6.10;;;;;;;32.65;46.14;100938.91;4989834;28;20548;-58
2021/10/18 11:50:43;;;;;;;13.13;7.78;;;;;;;32.41;45.65;100931.16;4988593;28;20586;-58
2021/10/18 11:53:25;;;;;;;11.73;6.88;;;;;;;32.07;45.61;100920.22;4992753;28;20070;-58
2021/10/18 11:56:00;;;;;;;13.35;6.63;;;;;;;31.93;46.28;100926.03;4991551;28;20458;-58
2021/10/18 11:58:31;;;;;;;9.27;5.25;;;;;;;32.05;45.55;100928.47;4991827;28;20129;-58
2021/10/18 12:01:06;;;;;;;10.60;5.43;;;;;;;32.19;45.68;100922.63;4980322;28;20091;-58
2021/10/18 12:03:36;;;;;;;9.10;4.90;;;;;;;32.79;43.97;100924.34;4974072;28;20520;-58
2021/10/18 12:06:10;;;;;;;8.30;5.20;;;;;;;33.17;42.97;100926.56;4976923;28;20038;-59
2021/10/18 12:08:39;;;;;;;12.98;5.57;;;;;;;33.47;42.53;100931.59;4991400;28;20046;-58
2021/10/18 12:11:08;;;;;;;7.72;5.22;;;;;;;33.79;41.43;100921.78;4992110;28;20133;-58
2021/10/18 12:13:36;;;;;;;;;;;;;;;34.21;42.77;100917.56;4974305;28;20047;-59
2021/10/18 12:16:02;;;;;;;7.88;4.95;;;;;;;33.79;41.23;100916.81;4983147;28;19968;-58
2021/10/18 12:18:36;;;;;;;9.07;6.10;;;;;;;33.68;41.16;100911.16;4987283;28;20068;-58
2021/10/18 12:21:10;;;;;;;8.65;5.13;;;;;;;33.84;41.04;100898.13;4989265;28;20173;-59
2021/10/18 12:23:53;;;;;;;8.43;4.40;;;;;;;34.19;40.63;100889.00;4992926;28;20133;-59
2021/10/18 12:26:24;;;;;;;7.57;4.57;;;;;;;34.57;38.89;100903.41;4975171;28;20046;-59
2021/10/18 12:29:09;;;;;;;8.68;5.10;;;;;;;33.96;40.03;100881.00;5005123;28;20121;-59
2021/10/18 12:31:38;;;;;;;8.35;5.53;;;;;;;33.47;40.48;100888.19;4988673;28;20125;-58
2021/10/18 12:34:16;;;;;;;10.23;5.32;;;;;;;32.93;40.74;100882.09;4989479;28;20069;-59